createdAt,value
2022-12-26T00:01:52.906Z,45.18
2022-12-26T00:04:49.525Z,45.03
2022-12-26T00:07:11.098Z,44.71
2022-12-26T00:09:39.869Z,44.96
2022-12-26T00:12:08.393Z,44.41
2022-12-26T00:14:38.402Z,44.64
2022-12-26T00:17:06.873Z,44.97
2022-12-26T00:19:35.666Z,44.54
2022-12-26T00:22:04.117Z,45.00
2022-12-26T00:24:33.081Z,44.41
2022-12-26T00:27:01.471Z,44.59
2022-12-26T00:29:30.507Z,44.82
2022-12-26T00:32:00.466Z,45.94
2022-12-26T00:34:29.351Z,45.66
2022-12-26T00:36:57.779Z,45.16
2022-12-26T00:39:28.198Z,44.88
2022-12-26T00:41:56.668Z,45.03
2022-12-26T00:44:25.473Z,44.79
2022-12-26T00:46:55.402Z,46.42
2022-12-26T00:49:25.646Z,50.20
2022-12-26T00:51:54.206Z,51.75
2022-12-26T00:54:23.125Z,54.81
2022-12-26T00:56:51.624Z,56.31
2022-12-26T00:59:20.848Z,56.00
2022-12-26T01:01:49.454Z,56.33
2022-12-26T01:04:18.328Z,56.26
2022-12-26T01:06:48.123Z,53.83
2022-12-26T01:09:16.819Z,52.92
2022-12-26T01:11:45.217Z,52.09
2022-12-26T01:14:16.059Z,51.00
2022-12-26T01:16:46.897Z,50.69
2022-12-26T01:19:18.577Z,49.92
2022-12-26T01:21:48.485Z,50.12
2022-12-26T01:24:17.263Z,49.70
2022-12-26T01:26:46.252Z,49.64
2022-12-26T01:29:15.011Z,48.95
2022-12-26T01:31:43.453Z,49.15
2022-12-26T01:34:12.394Z,49.04
2022-12-26T01:36:40.935Z,48.82
2022-12-26T01:39:11.291Z,48.44
2022-12-26T01:41:40.261Z,48.61
2022-12-26T01:44:47.481Z,48.26
2022-12-26T01:47:16.201Z,48.33
2022-12-26T01:49:47.867Z,48.21
2022-12-26T01:52:23.193Z,48.23
2022-12-26T01:54:55.770Z,48.64
2022-12-26T01:57:29.255Z,48.97
2022-12-26T01:59:59.940Z,52.17
2022-12-26T02:02:30.815Z,54.38
2022-12-26T02:05:17.452Z,53.86
2022-12-26T02:07:47.539Z,52.02
2022-12-26T02:10:23.301Z,51.31
2022-12-26T02:12:51.915Z,50.66
2022-12-26T02:15:20.679Z,50.40
2022-12-26T02:17:49.119Z,50.78
2022-12-26T02:20:21.893Z,53.04
2022-12-26T02:23:37.938Z,52.20
2022-12-26T02:26:44.463Z,51.04
2022-12-26T02:29:48.468Z,50.31
2022-12-26T02:32:27.972Z,50.08
2022-12-26T02:35:06.756Z,49.52
2022-12-26T02:37:53.026Z,48.63
2022-12-26T02:40:39.116Z,47.82
2022-12-26T02:43:17.475Z,48.56
2022-12-26T02:46:14.122Z,48.39
2022-12-26T02:48:56.611Z,47.86
2022-12-26T02:51:56.519Z,46.81
2022-12-26T02:54:54.252Z,46.69
2022-12-26T02:57:42.697Z,46.49
2022-12-26T03:00:35.185Z,46.33
2022-12-26T03:03:24.363Z,46.54
2022-12-26T03:06:18.370Z,46.54
2022-12-26T03:09:08.584Z,46.85
2022-12-26T03:11:58.782Z,46.36
2022-12-26T03:14:30.612Z,46.46
2022-12-26T03:17:19.787Z,46.33
2022-12-26T03:20:01.255Z,45.91
2022-12-26T03:22:38.898Z,45.14
2022-12-26T03:25:28.616Z,45.12
2022-12-26T03:27:57.508Z,44.93
2022-12-26T03:30:43.688Z,45.29
2022-12-26T03:33:26.476Z,45.37
2022-12-26T03:35:55.126Z,45.31
2022-12-26T03:38:34.381Z,44.57
2022-12-26T03:41:28.125Z,45.50
2022-12-26T03:44:27.715Z,44.87
2022-12-26T03:47:29.426Z,45.11
2022-12-26T03:50:22.523Z,44.68
2022-12-26T03:53:20.029Z,44.49
2022-12-26T03:56:14.083Z,44.55
2022-12-26T03:59:20.306Z,44.26
2022-12-26T04:02:09.468Z,43.70
2022-12-26T04:05:00.043Z,43.88
2022-12-26T04:07:56.304Z,43.99
2022-12-26T04:10:49.778Z,43.64
2022-12-26T04:13:41.950Z,43.96
2022-12-26T04:16:35.561Z,43.35
2022-12-26T04:19:25.855Z,44.00
2022-12-26T04:22:23.309Z,44.14
2022-12-26T04:25:16.680Z,44.44
2022-12-26T04:28:02.992Z,43.94
2022-12-26T04:30:52.978Z,44.16
2022-12-26T04:33:45.409Z,43.44
2022-12-26T04:36:41.100Z,43.36
2022-12-26T04:39:29.509Z,43.55
2022-12-26T04:42:18.614Z,44.61
2022-12-26T04:44:47.582Z,43.80
2022-12-26T04:47:18.412Z,43.87
2022-12-26T04:50:04.577Z,43.69
2022-12-26T04:52:47.392Z,43.85
2022-12-26T04:55:15.951Z,44.55
2022-12-26T04:57:44.787Z,45.33
2022-12-26T05:00:14.290Z,45.11
2022-12-26T05:03:02.076Z,45.02
2022-12-26T05:06:08.422Z,44.72
2022-12-26T05:08:57.287Z,44.47
2022-12-26T05:11:26.571Z,44.50
2022-12-26T05:13:56.768Z,44.77
2022-12-26T05:16:44.127Z,44.66
2022-12-26T05:19:33.781Z,44.29
2022-12-26T05:22:24.998Z,43.88
2022-12-26T05:25:11.574Z,43.39
2022-12-26T05:28:01.362Z,43.32
2022-12-26T05:30:30.668Z,43.23
2022-12-26T05:33:16.468Z,43.14
2022-12-26T05:35:46.575Z,43.34
2022-12-26T05:38:15.531Z,43.09
2022-12-26T05:40:44.317Z,43.30
2022-12-26T05:43:12.778Z,43.31
2022-12-26T05:45:41.556Z,43.22
2022-12-26T05:48:09.973Z,43.23
2022-12-26T05:50:38.629Z,43.54
2022-12-26T05:53:08.446Z,43.60
2022-12-26T05:55:37.194Z,43.75
2022-12-26T05:58:05.572Z,43.92
2022-12-26T06:00:34.365Z,43.09
2022-12-26T06:03:03.125Z,43.21
2022-12-26T06:05:32.034Z,43.14
2022-12-26T06:08:00.486Z,43.35
2022-12-26T06:10:30.923Z,43.12
2022-12-26T06:13:01.606Z,42.93
2022-12-26T06:15:30.324Z,43.04
2022-12-26T06:17:58.997Z,42.93
2022-12-26T06:20:27.875Z,43.44
2022-12-26T06:22:56.283Z,43.01
2022-12-26T06:25:25.129Z,42.94
2022-12-26T06:27:54.958Z,43.24
2022-12-26T06:30:23.719Z,42.71
2022-12-26T06:32:52.376Z,42.48
2022-12-26T06:35:21.545Z,42.40
2022-12-26T06:37:49.918Z,42.29
2022-12-26T06:40:18.841Z,42.71
2022-12-26T06:42:47.571Z,43.03
2022-12-26T06:45:17.810Z,43.74
2022-12-26T06:47:46.472Z,43.25
2022-12-26T06:50:15.368Z,43.17
2022-12-26T06:52:45.009Z,43.10
2022-12-26T06:55:13.673Z,43.26
2022-12-26T06:57:42.129Z,43.01
2022-12-26T07:00:12.846Z,42.98
2022-12-26T07:02:42.810Z,42.66
2022-12-26T07:05:11.807Z,42.42
2022-12-26T07:07:40.197Z,42.52
2022-12-26T07:10:09.561Z,42.31
2022-12-26T07:12:38.007Z,43.08
2022-12-26T07:15:10.063Z,43.08
2022-12-26T07:17:38.686Z,42.85
2022-12-26T07:20:10.489Z,42.88
2022-12-26T07:22:39.341Z,42.41
2022-12-26T07:25:08.921Z,42.35
2022-12-26T07:27:37.415Z,42.00
2022-12-26T07:30:07.112Z,42.03
2022-12-26T07:32:35.589Z,41.52
2022-12-26T07:35:04.604Z,41.42
2022-12-26T07:37:34.775Z,41.42
2022-12-26T07:40:03.655Z,41.67
2022-12-26T07:42:32.245Z,41.32
2022-12-26T07:45:01.062Z,41.64
2022-12-26T07:47:29.542Z,41.30
2022-12-26T07:49:58.285Z,41.93
2022-12-26T07:52:26.775Z,41.88
2022-12-26T07:54:56.933Z,41.74
2022-12-26T08:00:15.879Z,41.56
2022-12-26T08:02:44.497Z,41.47
2022-12-26T08:05:13.430Z,41.88
2022-12-26T08:07:41.846Z,41.97
2022-12-26T08:10:12.021Z,41.70
2022-12-26T08:12:40.513Z,42.44
2022-12-26T08:15:11.145Z,42.25
2022-12-26T08:17:39.982Z,42.69
2022-12-26T08:20:09.664Z,42.87
2022-12-26T08:22:38.201Z,42.52
2022-12-26T08:25:08.187Z,43.38
2022-12-26T08:27:38.111Z,42.80
2022-12-26T08:30:07.987Z,42.69
2022-12-26T08:32:39.435Z,42.37
2022-12-26T08:35:11.388Z,42.62
2022-12-26T08:37:39.841Z,42.25
2022-12-26T08:40:09.791Z,42.29
2022-12-26T08:43:03.018Z,42.58
2022-12-26T08:45:28.580Z,42.09
2022-12-26T08:47:58.143Z,41.82
2022-12-26T08:50:27.037Z,41.30
2022-12-26T08:52:55.399Z,41.19
2022-12-26T08:55:25.085Z,41.10
2022-12-26T08:57:55.167Z,41.48
2022-12-26T09:00:26.444Z,41.25
2022-12-26T09:02:55.157Z,41.08
2022-12-26T09:05:23.951Z,40.71
2022-12-26T09:07:52.397Z,40.62
2022-12-26T09:10:21.162Z,40.48
2022-12-26T09:12:49.574Z,40.14
2022-12-26T09:15:19.916Z,40.02
2022-12-26T09:17:48.420Z,39.44
2022-12-26T09:20:17.349Z,40.01
2022-12-26T09:22:51.666Z,39.89
2022-12-26T09:25:24.273Z,39.53
2022-12-26T09:27:59.038Z,39.83
2022-12-26T09:30:30.090Z,39.57
2022-12-26T09:32:58.650Z,39.60
2022-12-26T09:35:27.578Z,39.61
2022-12-26T09:37:56.434Z,39.22
2022-12-26T09:40:31.250Z,39.52
2022-12-26T09:43:10.546Z,39.32
2022-12-26T09:45:52.545Z,39.52
2022-12-26T09:48:28.021Z,39.61
2022-12-26T09:50:58.753Z,39.22
2022-12-26T09:53:33.215Z,39.41
2022-12-26T09:56:08.610Z,38.99
2022-12-26T09:58:46.507Z,38.76
2022-12-26T10:01:19.303Z,38.68
2022-12-26T10:03:50.903Z,38.88
2022-12-26T10:06:21.739Z,39.23
2022-12-26T10:09:31.318Z,39.34
2022-12-26T10:12:17.303Z,39.24
2022-12-26T10:14:54.207Z,39.17
2022-12-26T10:17:32.119Z,39.00
2022-12-26T10:20:15.260Z,38.40
2022-12-26T10:23:06.065Z,38.62
2022-12-26T10:25:42.727Z,38.07
2022-12-26T10:28:18.905Z,38.26
2022-12-26T10:30:50.560Z,38.12
2022-12-26T10:33:38.255Z,38.03
2022-12-26T10:36:07.519Z,37.86
2022-12-26T10:38:40.534Z,37.59
2022-12-26T10:41:15.724Z,37.41
2022-12-26T10:43:45.739Z,36.91
2022-12-26T10:46:31.264Z,37.26
2022-12-26T10:49:01.758Z,36.84
2022-12-26T10:51:30.701Z,36.81
2022-12-26T10:54:00.022Z,36.62
2022-12-26T10:56:29.411Z,36.39
2022-12-26T10:59:04.915Z,36.16
2022-12-26T11:01:36.812Z,35.93
2022-12-26T11:04:18.910Z,35.84
2022-12-26T11:06:53.377Z,35.46
2022-12-26T11:09:39.734Z,35.38
2022-12-26T11:12:20.996Z,35.65
2022-12-26T11:14:50.211Z,35.71
2022-12-26T11:17:28.056Z,35.42
2022-12-26T11:20:24.961Z,35.54
2022-12-26T11:22:54.506Z,36.32
2022-12-26T11:25:25.490Z,36.60
2022-12-26T11:27:55.924Z,37.16
2022-12-26T11:30:29.259Z,37.57
2022-12-26T11:33:19.913Z,37.52
2022-12-26T11:35:55.387Z,37.54
2022-12-26T11:38:44.781Z,37.57
2022-12-26T11:41:36.219Z,37.49
2022-12-26T11:44:14.237Z,37.66
2022-12-26T11:46:46.940Z,37.49
2022-12-26T11:49:21.524Z,37.26
2022-12-26T11:51:58.928Z,37.49
2022-12-26T11:54:37.947Z,38.11
2022-12-26T11:57:29.211Z,37.66
2022-12-26T12:00:16.749Z,37.58
2022-12-26T12:02:45.603Z,37.26
2022-12-26T12:05:17.444Z,37.72
2022-12-26T12:08:15.598Z,37.18
2022-12-26T12:11:00.703Z,37.20
2022-12-26T12:13:43.259Z,37.43
2022-12-26T12:16:26.254Z,37.43
2022-12-26T12:19:02.282Z,37.48
2022-12-26T12:21:38.498Z,37.53
2022-12-26T12:24:28.552Z,37.69
2022-12-26T12:27:06.620Z,37.87
2022-12-26T12:29:50.193Z,37.82
2022-12-26T12:32:23.452Z,37.84
2022-12-26T12:35:16.395Z,37.92
2022-12-26T12:38:01.042Z,38.01
2022-12-26T12:40:40.475Z,38.27
2022-12-26T12:43:18.936Z,38.25
2022-12-26T12:45:57.607Z,38.18
2022-12-26T12:48:47.583Z,38.16
2022-12-26T12:51:24.910Z,38.36
2022-12-26T12:54:20.791Z,38.79
2022-12-26T12:57:02.448Z,38.82
2022-12-26T12:59:39.951Z,38.89
2022-12-26T13:02:20.474Z,39.31
2022-12-26T13:04:55.643Z,39.16
2022-12-26T13:07:30.837Z,39.52
2022-12-26T13:10:03.127Z,39.38
2022-12-26T13:12:39.215Z,39.58
2022-12-26T13:15:15.850Z,39.84
2022-12-26T13:17:51.025Z,39.49
2022-12-26T13:20:23.522Z,39.45
2022-12-26T13:23:15.369Z,39.45
2022-12-26T13:25:47.405Z,40.13
2022-12-26T13:28:22.514Z,39.96
2022-12-26T13:30:54.519Z,39.78
2022-12-26T13:33:23.945Z,39.44
2022-12-26T13:35:56.635Z,39.40
2022-12-26T13:38:53.881Z,39.41
2022-12-26T13:41:41.671Z,39.63
2022-12-26T13:44:27.353Z,39.49
2022-12-26T13:46:57.781Z,39.94
2022-12-26T13:49:29.946Z,40.30
2022-12-26T13:52:19.377Z,40.33
2022-12-26T13:55:21.138Z,40.24
2022-12-26T13:58:12.937Z,40.25
2022-12-26T14:00:46.943Z,40.45
2022-12-26T14:03:38.590Z,40.55
2022-12-26T14:06:42.942Z,40.55
2022-12-26T14:09:28.904Z,40.85
2022-12-26T14:12:21.372Z,40.66
2022-12-26T14:15:08.431Z,40.50
2022-12-26T14:17:49.722Z,40.63
2022-12-26T14:20:37.175Z,41.21
2022-12-26T14:23:22.823Z,40.97
2022-12-26T14:26:00.607Z,41.00
2022-12-26T14:28:34.329Z,40.89
2022-12-26T14:31:16.298Z,41.04
2022-12-26T14:33:56.596Z,40.86
2022-12-26T14:36:37.770Z,40.85
2022-12-26T14:39:21.733Z,41.00
2022-12-26T14:42:38.950Z,40.94
2022-12-26T14:45:35.260Z,41.48
2022-12-26T14:48:04.543Z,41.93
2022-12-26T14:50:41.997Z,41.99
2022-12-26T14:53:32.104Z,41.63
2022-12-26T14:56:02.321Z,42.12
2022-12-26T14:58:41.128Z,42.03
2022-12-26T15:01:47.448Z,41.86
2022-12-26T15:04:52.161Z,41.60
2022-12-26T15:07:46.782Z,41.67
2022-12-26T15:10:56.527Z,41.71
2022-12-26T15:13:49.025Z,41.85
2022-12-26T15:16:42.343Z,42.24
2022-12-26T15:19:47.065Z,42.11
2022-12-26T15:23:03.889Z,41.98
2022-12-26T15:29:24.687Z,43.35
2022-12-26T15:32:06.402Z,42.57
2022-12-26T15:34:50.602Z,42.34
2022-12-26T15:37:53.726Z,42.17
2022-12-26T15:40:25.505Z,42.29
2022-12-26T15:43:15.134Z,42.47
2022-12-26T15:45:50.275Z,42.67
2022-12-26T15:48:34.587Z,43.34
2022-12-26T15:51:09.537Z,43.30
2022-12-26T15:53:58.553Z,43.59
2022-12-26T15:56:48.519Z,43.37
2022-12-26T15:59:50.150Z,43.95
2022-12-26T16:02:38.596Z,44.32
2022-12-26T16:05:38.892Z,44.12
2022-12-26T16:08:37.504Z,43.93
2022-12-26T16:11:15.296Z,44.79
2022-12-26T16:13:57.255Z,44.77
2022-12-26T16:16:34.271Z,45.11
2022-12-26T16:19:22.814Z,44.38
2022-12-26T16:22:13.594Z,45.51
2022-12-26T16:24:44.407Z,45.13
2022-12-26T16:27:18.642Z,44.28
2022-12-26T16:29:51.002Z,44.30
2022-12-26T16:32:22.852Z,44.57
2022-12-26T16:34:53.260Z,44.58
2022-12-26T16:37:26.041Z,44.11
2022-12-26T16:40:15.021Z,44.22
2022-12-26T16:42:45.400Z,44.20
2022-12-26T16:45:19.483Z,44.31
2022-12-26T16:47:49.883Z,44.48
2022-12-26T16:50:23.312Z,44.32
2022-12-26T16:53:02.727Z,43.87
2022-12-26T16:55:44.540Z,44.08
2022-12-26T16:58:21.902Z,44.29
2022-12-26T17:01:00.689Z,43.85
2022-12-26T17:03:38.595Z,43.96
2022-12-26T17:06:16.041Z,43.78
2022-12-26T17:08:48.695Z,43.90
2022-12-26T17:11:17.802Z,43.38
2022-12-26T17:13:52.831Z,43.71
2022-12-26T17:16:25.135Z,43.48
2022-12-26T17:18:54.859Z,43.39
2022-12-26T17:21:29.952Z,43.31
2022-12-26T17:24:26.257Z,43.19
2022-12-26T17:27:19.637Z,42.83
2022-12-26T17:29:53.273Z,43.33
2022-12-26T17:32:37.264Z,42.81
2022-12-26T17:35:09.062Z,43.06
2022-12-26T17:37:39.247Z,43.14
2022-12-26T17:40:21.049Z,43.11
2022-12-26T17:42:51.942Z,42.58
2022-12-26T17:45:23.610Z,42.65
2022-12-26T17:47:52.823Z,42.68
2022-12-26T17:50:21.896Z,42.79
2022-12-26T17:52:52.948Z,42.75
2022-12-26T17:55:28.689Z,42.53
2022-12-26T17:57:57.144Z,42.45
2022-12-26T18:00:28.143Z,42.43
2022-12-26T18:02:57.702Z,42.30
2022-12-26T18:05:26.587Z,42.25
2022-12-26T18:07:56.783Z,42.39
2022-12-26T18:10:28.756Z,42.37
2022-12-26T18:12:58.561Z,41.90
2022-12-26T18:15:29.189Z,41.83
2022-12-26T18:17:58.395Z,41.74
2022-12-26T18:20:29.368Z,41.57
2022-12-26T18:22:59.285Z,41.54
2022-12-26T18:25:28.264Z,41.13
2022-12-26T18:27:56.775Z,41.61
2022-12-26T18:30:26.586Z,41.01
2022-12-26T18:32:55.383Z,40.88
2022-12-26T18:35:24.958Z,40.46
2022-12-26T18:37:54.325Z,40.38
2022-12-26T18:40:32.063Z,40.82
2022-12-26T18:43:00.853Z,41.10
2022-12-26T18:45:30.262Z,41.20
2022-12-26T18:48:00.168Z,41.32
2022-12-26T18:50:30.554Z,41.20
2022-12-26T18:52:59.523Z,41.32
2022-12-26T18:55:29.968Z,40.68
2022-12-26T18:57:58.765Z,40.46
2022-12-26T19:00:27.505Z,40.30
2022-12-26T19:02:56.660Z,40.55
2022-12-26T19:05:28.794Z,40.61
2022-12-26T19:07:58.130Z,40.51
2022-12-26T19:10:30.999Z,40.56
2022-12-26T19:13:05.414Z,40.08
2022-12-26T19:15:36.318Z,39.51
2022-12-26T19:18:05.925Z,39.27
2022-12-26T19:20:39.024Z,39.01
2022-12-26T19:23:11.072Z,39.40
2022-12-26T19:25:41.691Z,39.13
2022-12-26T19:28:10.084Z,39.15
2022-12-26T19:30:39.368Z,39.16
2022-12-26T19:33:08.390Z,39.15
2022-12-26T19:35:37.268Z,38.77
2022-12-26T19:38:05.740Z,38.64
2022-12-26T19:40:34.547Z,38.58
2022-12-26T19:43:04.483Z,38.44
2022-12-26T19:45:33.658Z,38.52
2022-12-26T19:48:02.208Z,38.96
2022-12-26T19:50:31.016Z,38.95
2022-12-26T19:52:59.571Z,39.11
2022-12-26T19:55:28.313Z,39.39
2022-12-26T19:57:56.769Z,40.02
2022-12-26T20:00:26.906Z,40.16
2022-12-26T20:02:55.385Z,39.92
2022-12-26T20:05:25.328Z,40.05
2022-12-26T20:07:53.888Z,40.46
2022-12-26T20:10:22.744Z,40.22
2022-12-26T20:12:51.270Z,40.12
2022-12-26T20:15:20.079Z,40.04
2022-12-26T20:17:50.270Z,39.98
2022-12-26T20:20:19.183Z,40.24
2022-12-26T20:22:52.856Z,40.00
2022-12-26T20:25:22.146Z,39.93
2022-12-26T20:27:50.623Z,40.47
2022-12-26T20:30:19.492Z,41.08
2022-12-26T20:32:49.471Z,41.30
2022-12-26T20:35:18.525Z,41.37
2022-12-26T20:37:46.948Z,40.97
2022-12-26T20:40:15.740Z,41.26
2022-12-26T20:42:44.209Z,41.35
2022-12-26T20:45:13.063Z,41.77
2022-12-26T20:47:41.603Z,42.36
2022-12-26T20:50:11.920Z,42.01
2022-12-26T20:52:40.322Z,41.56
2022-12-26T20:55:09.753Z,41.32
2022-12-26T20:57:38.413Z,41.48
2022-12-26T21:00:08.823Z,41.56
2022-12-26T21:02:37.517Z,41.14
2022-12-26T21:05:07.262Z,41.50
2022-12-26T21:07:37.220Z,40.99
2022-12-26T21:10:06.845Z,41.35
2022-12-26T21:12:35.453Z,41.76
2022-12-26T21:15:04.541Z,41.32
2022-12-26T21:17:32.993Z,41.57
2022-12-26T21:20:01.786Z,41.50
2022-12-26T21:22:30.190Z,41.46
2022-12-26T21:25:00.304Z,41.35
2022-12-26T21:27:28.843Z,41.38
2022-12-26T21:29:57.757Z,41.04
2022-12-26T21:32:26.246Z,40.98
2022-12-26T21:34:55.092Z,40.95
2022-12-26T21:37:40.894Z,40.68
2022-12-26T21:40:12.560Z,40.50
2022-12-26T21:42:41.192Z,40.57
2022-12-26T21:45:11.704Z,40.53
2022-12-26T21:47:40.368Z,40.27
2022-12-26T21:50:10.216Z,40.36
2022-12-26T21:52:38.879Z,40.42
2022-12-26T21:55:26.120Z,40.31
2022-12-26T21:57:56.351Z,40.34
2022-12-26T22:00:25.518Z,40.37
2022-12-26T22:03:11.911Z,40.35
2022-12-26T22:05:42.558Z,40.54
2022-12-26T22:08:12.851Z,40.25
2022-12-26T22:11:02.990Z,40.35
2022-12-26T22:13:40.389Z,40.34
2022-12-26T22:16:11.959Z,40.26
2022-12-26T22:18:42.867Z,40.43
2022-12-26T22:21:14.526Z,40.21
2022-12-26T22:23:43.619Z,40.36
2022-12-26T22:26:14.656Z,40.28
2022-12-26T22:28:44.640Z,40.59
2022-12-26T22:31:20.473Z,40.55
2022-12-26T22:33:49.963Z,40.52
2022-12-26T22:36:18.778Z,40.37
2022-12-26T22:38:47.287Z,40.39
2022-12-26T22:41:16.272Z,40.39
2022-12-26T22:43:46.459Z,40.37
2022-12-26T22:46:15.734Z,40.12
2022-12-26T22:48:44.273Z,40.51
2022-12-26T22:51:17.422Z,40.50
2022-12-26T22:53:45.958Z,41.08
2022-12-26T22:56:15.145Z,40.72
2022-12-26T22:58:45.111Z,40.68
2022-12-26T23:01:15.342Z,40.71
2022-12-26T23:03:44.131Z,40.55
2022-12-26T23:06:19.695Z,40.68
2022-12-26T23:08:48.781Z,40.49
2022-12-26T23:11:17.925Z,40.38
2022-12-26T23:13:48.606Z,40.35
2022-12-26T23:16:27.241Z,40.20
2022-12-26T23:19:22.471Z,40.30
2022-12-26T23:21:51.660Z,40.37
2022-12-26T23:24:22.378Z,40.32
2022-12-26T23:26:53.832Z,40.37
2022-12-26T23:29:43.255Z,40.39
2022-12-26T23:32:12.437Z,40.31
2022-12-26T23:34:40.897Z,40.06
2022-12-26T23:37:09.752Z,40.23
2022-12-26T23:39:38.185Z,40.23
2022-12-26T23:42:07.417Z,40.33
2022-12-26T23:44:37.448Z,40.15
2022-12-26T23:47:06.420Z,40.06
2022-12-26T23:49:35.100Z,40.07
2022-12-26T23:52:03.902Z,39.85
2022-12-26T23:54:32.386Z,39.98
2022-12-26T23:57:01.233Z,39.86
2022-12-26T23:59:29.852Z,39.97
